Time;durP1;ratioP1;P1;durP2;ratioP2;P2;SDS_P1;SDS_P2;PMS_P1;PMS_P2;Temp;Humidity;BMP_temperature;BMP_pressure;BME280_temperature;BME280_humidity;BME280_pressure;Samples;Min_cycle;Max_cycle;Signal;HPM_P1;HPM_P2
2023/12/02 00:00:04;;;;;;;15.25;7.15;;;1.60;99.90;;;;;;4991425;28;20038;-91
2023/12/02 00:02:29;;;;;;;14.10;6.93;;;1.40;99.90;;;;;;4991476;28;20038;-90
2023/12/02 00:04:57;;;;;;;13.23;6.18;;;1.40;99.90;;;;;;4984413;28;20049;-90
2023/12/02 00:07:23;;;;;;;16.42;7.32;;;1.50;99.90;;;;;;4994014;28;20034;-91
2023/12/02 00:09:49;;;;;;;15.30;6.50;;;1.60;99.90;;;;;;4992106;28;20030;-91
2023/12/02 00:12:19;;;;;;;11.82;6.03;;;1.60;99.90;;;;;;4992689;28;20575;-91
2023/12/02 00:14:44;;;;;;;13.00;6.43;;;1.50;99.90;;;;;;4972844;28;20031;-92
2023/12/02 00:17:10;;;;;;;15.85;6.50;;;1.60;99.90;;;;;;4992722;28;20144;-91
2023/12/02 00:19:36;;;;;;;13.43;6.43;;;1.60;99.90;;;;;;4977271;28;20117;-91
2023/12/02 00:22:03;;;;;;;11.73;5.97;;;1.50;99.90;;;;;;4993887;28;20026;-91
2023/12/02 00:24:33;;;;;;;12.77;6.32;;;1.50;99.90;;;;;;4991066;28;20061;-91
2023/12/02 00:26:58;;;;;;;25.65;8.18;;;1.40;99.90;;;;;;4992613;28;20046;-91
2023/12/02 00:29:24;;;;;;;16.52;7.25;;;1.40;99.90;;;;;;4992340;28;20069;-91
2023/12/02 00:31:52;;;;;;;20.38;7.78;;;1.40;99.90;;;;;;4993089;28;20484;-92
2023/12/02 00:34:17;;;;;;;16.50;8.00;;;1.40;99.90;;;;;;4993572;28;20034;-91
2023/12/02 00:36:49;;;;;;;23.27;8.75;;;1.30;99.90;;;;;;4990004;28;20093;-91
2023/12/02 00:39:17;;;;;;;20.98;9.18;;;1.40;99.90;;;;;;5006544;28;20110;-91
2023/12/02 00:41:43;;;;;;;24.95;10.05;;;1.50;99.90;;;;;;4993806;28;20034;-89
2023/12/02 00:44:12;;;;;;;20.33;9.07;;;1.40;99.90;;;;;;4992169;28;20440;-91
2023/12/02 00:46:37;;;;;;;21.10;10.60;;;1.50;99.90;;;;;;4976061;28;20039;-90
2023/12/02 00:49:03;;;;;;;28.17;10.85;;;1.50;99.90;;;;;;4991439;28;20030;-90
2023/12/02 00:51:28;;;;;;;26.60;11.00;;;1.50;99.90;;;;;;4988958;28;20057;-91
2023/12/02 00:53:54;;;;;;;22.60;10.48;;;1.40;99.90;;;;;;4974825;28;20600;-90
2023/12/02 00:56:20;;;;;;;25.17;11.32;;;1.40;99.90;;;;;;4988229;28;20478;-89
2023/12/02 00:58:48;;;;;;;28.45;11.82;;;1.40;99.90;;;;;;5001653;28;20027;-91
2023/12/02 01:01:14;;;;;;;27.98;12.23;;;1.30;99.90;;;;;;4977263;28;20026;-91
2023/12/02 01:03:40;;;;;;;23.55;11.45;;;1.20;99.90;;;;;;4993229;28;20081;-91
2023/12/02 01:06:07;;;;;;;22.63;10.63;;;1.20;99.90;;;;;;4989762;28;20433;-89
2023/12/02 01:08:32;;;;;;;24.90;11.95;;;1.20;99.90;;;;;;4990255;28;20038;-90
2023/12/02 01:10:58;;;;;;;30.70;11.65;;;1.10;99.90;;;;;;4993041;28;20534;-91
2023/12/02 01:13:23;;;;;;;20.65;9.45;;;1.10;99.90;;;;;;4976989;28;20027;-91
2023/12/02 01:15:49;;;;;;;22.55;10.50;;;1.10;99.90;;;;;;4994729;28;20117;-91
2023/12/02 01:18:17;;;;;;;24.33;10.95;;;1.20;99.90;;;;;;4992226;28;20115;-91
2023/12/02 01:20:42;;;;;;;27.35;11.20;;;1.20;99.90;;;;;;4990795;28;20557;-92
2023/12/02 01:23:08;;;;;;;27.00;10.88;;;1.20;99.90;;;;;;4991970;28;20125;-90
2023/12/02 01:25:33;;;;;;;21.70;10.38;;;1.10;99.90;;;;;;5004240;28;20053;-91
2023/12/02 01:27:59;;;;;;;24.38;11.77;;;1.10;99.90;;;;;;4990758;28;20018;-91
2023/12/02 01:30:25;;;;;;;23.63;10.63;;;1.00;99.90;;;;;;4962058;28;20111;-90
2023/12/02 01:32:55;;;;;;;20.23;9.05;;;1.20;99.90;;;;;;5007095;28;20058;-91
2023/12/02 01:35:21;;;;;;;24.15;9.18;;;1.20;99.90;;;;;;4987646;28;20030;-91
2023/12/02 01:37:46;;;;;;;21.27;10.02;;;1.20;99.90;;;;;;4974435;28;20034;-89
2023/12/02 01:40:12;;;;;;;22.08;10.10;;;1.10;99.90;;;;;;4975944;28;20034;-91
2023/12/02 01:42:40;;;;;;;23.00;11.00;;;1.10;99.90;;;;;;4989771;28;20037;-90
2023/12/02 01:45:09;;;;;;;27.65;11.57;;;1.40;99.90;;;;;;4990862;28;20030;-91
2023/12/02 01:47:34;;;;;;;31.90;12.40;;;1.10;99.90;;;;;;4992580;28;20022;-91
2023/12/02 01:50:01;;;;;;;23.05;10.57;;;0.90;99.90;;;;;;4988323;28;20100;-92
2023/12/02 01:52:27;;;;;;;24.42;11.18;;;1.00;99.90;;;;;;4989039;28;20061;-90
2023/12/02 01:54:55;;;;;;;24.80;10.73;;;0.90;99.90;;;;;;4989625;28;20121;-90
2023/12/02 01:57:22;;;;;;;22.27;8.68;;;0.80;99.90;;;;;;4988035;28;20031;-90
2023/12/02 01:59:55;;;;;;;17.65;8.00;;;0.60;99.90;;;;;;5006850;28;20034;-92
2023/12/02 02:02:25;;;;;;;21.27;9.35;;;0.70;99.90;;;;;;4988035;28;20110;-90
2023/12/02 02:04:53;;;;;;;21.70;9.80;;;0.80;99.90;;;;;;4985300;28;20121;-91
2023/12/02 02:07:21;;;;;;;21.67;9.30;;;0.80;99.90;;;;;;4984734;28;20506;-89
2023/12/02 02:09:47;;;;;;;;;;;0.80;99.90;;;;;;4985848;28;20026;-90
2023/12/02 02:12:15;;;;;;;20.90;8.88;;;0.90;99.90;;;;;;4991954;28;20403;-91
2023/12/02 02:14:43;;;;;;;24.63;9.73;;;1.10;99.90;;;;;;4988300;28;20041;-91
2023/12/02 02:17:08;;;;;;;;;;;1.00;99.90;;;;;;4991605;28;20165;-91
2023/12/02 02:19:34;;;;;;;28.35;10.85;;;0.90;99.90;;;;;;4990026;28;19996;-92
2023/12/02 02:22:00;;;;;;;24.77;10.20;;;0.80;99.90;;;;;;4988394;28;20030;-90
2023/12/02 02:24:26;;;;;;;23.73;10.50;;;0.80;99.90;;;;;;4973741;28;20039;-91
2023/12/02 02:26:51;;;;;;;29.08;11.55;;;1.00;99.90;;;;;;4992983;28;20029;-90
2023/12/02 02:29:21;;;;;;;29.70;12.45;;;1.00;99.90;;;;;;4987703;28;20093;-91
2023/12/02 02:31:47;;;;;;;28.10;11.18;;;0.90;99.90;;;;;;4991317;28;20035;-91
2023/12/02 02:34:12;;;;;;;28.17;11.05;;;0.90;99.90;;;;;;4990205;28;20386;-91
2023/12/02 02:36:41;;;;;;;30.10;12.23;;;1.00;99.90;;;;;;4989474;28;20113;-90
2023/12/02 02:39:07;;;;;;;30.45;12.60;;;1.00;99.90;;;;;;4985568;28;20030;-91
2023/12/02 02:41:33;;;;;;;27.33;11.27;;;1.10;99.90;;;;;;5004431;28;20041;-91
2023/12/02 02:43:58;;;;;;;30.02;12.13;;;1.10;99.90;;;;;;4990372;28;20034;-91
2023/12/02 02:46:24;;;;;;;26.15;11.25;;;1.00;99.90;;;;;;4988115;28;20031;-91
2023/12/02 02:48:52;;;;;;;27.45;11.43;;;1.00;99.90;;;;;;4997514;28;20473;-90
2023/12/02 02:51:18;;;;;;;27.52;11.93;;;1.00;99.90;;;;;;4988169;28;20037;-90
2023/12/02 02:53:44;;;;;;;27.70;11.93;;;1.00;99.90;;;;;;4987983;28;20031;-91
2023/12/02 02:56:11;;;;;;;29.65;12.27;;;0.80;99.90;;;;;;4989028;28;20026;-91
2023/12/02 02:58:39;;;;;;;33.17;13.23;;;0.90;99.90;;;;;;4989965;28;20053;-91
2023/12/02 03:01:05;;;;;;;36.35;14.65;;;0.90;99.90;;;;;;4984007;28;20034;-91
2023/12/02 03:03:33;;;;;;;32.92;12.65;;;1.00;99.90;;;;;;4989962;28;20033;-91
2023/12/02 03:06:01;;;;;;;;;;;1.00;99.90;;;;;;4988330;28;20042;-91
2023/12/02 03:08:28;;;;;;;33.15;13.43;;;0.90;99.90;;;;;;4990361;28;20545;-91
2023/12/02 03:10:54;;;;;;;;;;;0.70;99.90;;;;;;4987882;28;20446;-90
2023/12/02 03:13:21;;;;;;;30.92;12.52;;;0.70;99.90;;;;;;4982019;28;20020;-90
2023/12/02 03:15:46;;;;;;;41.83;14.35;;;0.60;99.90;;;;;;4984983;28;20022;-90
2023/12/02 03:18:14;;;;;;;35.67;12.95;;;0.60;99.90;;;;;;4988728;28;20077;-91
2023/12/02 03:20:42;;;;;;;31.13;12.23;;;0.60;99.90;;;;;;4987988;28;20386;-91
2023/12/02 03:23:08;;;;;;;34.60;12.20;;;0.80;99.90;;;;;;4990963;28;20180;-91
2023/12/02 03:25:33;;;;;;;41.60;13.95;;;0.90;99.90;;;;;;4989218;28;20493;-91
2023/12/02 03:28:01;;;;;;;35.20;13.48;;;0.90;99.90;;;;;;4989133;28;20022;-91
2023/12/02 03:30:27;;;;;;;;;;;0.80;99.90;;;;;;4990215;28;20049;-91
2023/12/02 03:32:55;;;;;;;31.75;13.18;;;1.00;99.90;;;;;;4989135;28;19917;-92
2023/12/02 03:35:21;;;;;;;38.60;15.23;;;0.90;99.90;;;;;;4999045;28;20039;-91
2023/12/02 03:37:47;;;;;;;31.30;12.82;;;1.10;99.90;;;;;;4988996;28;20030;-92
2023/12/02 03:40:13;;;;;;;35.03;14.13;;;1.00;99.90;;;;;;4986099;28;20169;-91
2023/12/02 03:42:38;;;;;;;37.83;14.38;;;1.00;99.90;;;;;;4988733;28;20656;-91
2023/12/02 03:45:06;;;;;;;35.63;13.68;;;0.80;99.90;;;;;;4979119;28;20035;-91
2023/12/02 03:47:34;;;;;;;38.22;14.35;;;0.70;99.90;;;;;;4990863;28;20037;-91
2023/12/02 03:50:00;;;;;;;37.92;13.18;;;0.80;99.90;;;;;;4988128;28;20089;-91
2023/12/02 03:52:25;;;;;;;36.58;13.73;;;0.70;99.90;;;;;;5005183;28;20485;-91
2023/12/02 03:54:51;;;;;;;30.67;13.13;;;0.80;99.90;;;;;;4988804;28;20089;-91
2023/12/02 03:57:17;;;;;;;29.80;12.98;;;1.00;99.90;;;;;;4988871;28;20026;-91
2023/12/02 03:59:44;;;;;;;29.08;12.60;;;1.10;99.90;;;;;;4989845;28;20058;-91
2023/12/02 04:02:10;;;;;;;33.70;13.60;;;1.10;99.90;;;;;;4986692;28;20085;-92
2023/12/02 04:04:35;;;;;;;38.00;14.45;;;1.10;99.90;;;;;;4985422;28;20109;-91
2023/12/02 04:07:11;;;;;;;32.40;13.38;;;1.10;99.90;;;;;;4987271;28;20082;-90
2023/12/02 04:09:37;;;;;;;31.75;13.23;;;1.30;99.90;;;;;;4986015;28;20053;-90
2023/12/02 04:12:03;;;;;;;35.90;14.23;;;1.20;99.90;;;;;;4987648;28;20613;-90
2023/12/02 04:14:28;;;;;;;39.25;14.32;;;1.20;99.90;;;;;;4989696;28;20058;-91
2023/12/02 04:16:54;;;;;;;40.05;15.85;;;1.30;99.90;;;;;;4991862;28;20441;-91
2023/12/02 04:19:22;;;;;;;36.08;14.23;;;1.20;99.90;;;;;;4989995;28;20037;-91
2023/12/02 04:21:47;;;;;;;;;;;1.20;99.90;;;;;;4989981;28;20089;-91
2023/12/02 04:24:13;;;;;;;41.00;16.95;;;1.20;99.90;;;;;;4992382;28;20324;-90
2023/12/02 04:26:41;;;;;;;40.85;15.95;;;1.10;99.90;;;;;;4993270;28;20026;-91
2023/12/02 04:29:06;;;;;;;37.85;15.05;;;1.00;99.90;;;;;;4993013;28;20540;-90
2023/12/02 04:31:34;;;;;;;41.85;16.15;;;0.80;99.90;;;;;;4987666;28;20042;-91
2023/12/02 04:34:00;;;;;;;40.08;16.05;;;0.50;99.90;;;;;;4992442;28;20034;-88
2023/12/02 04:36:26;;;;;;;47.08;18.15;;;0.50;99.90;;;;;;4991274;28;20421;-90
2023/12/02 04:38:52;;;;;;;40.00;15.27;;;0.70;99.90;;;;;;4989547;28;20054;-90
2023/12/02 04:41:17;;;;;;;36.83;15.38;;;0.80;99.90;;;;;;4972743;28;20041;-90
2023/12/02 04:43:43;;;;;;;34.80;14.18;;;0.70;99.90;;;;;;4992374;28;20549;-91
2023/12/02 04:46:11;;;;;;;35.85;14.82;;;0.70;99.90;;;;;;4994243;28;20493;-91
2023/12/02 04:48:37;;;;;;;35.92;14.30;;;0.70;99.90;;;;;;4990523;28;20026;-91
2023/12/02 04:51:03;;;;;;;43.75;15.70;;;0.80;99.90;;;;;;4991207;28;20034;-90
2023/12/02 04:53:28;;;;;;;36.78;14.80;;;0.60;99.90;;;;;;4990909;28;20117;-91
2023/12/02 04:55:54;;;;;;;35.22;14.88;;;0.90;99.90;;;;;;4991369;28;20117;-91
2023/12/02 04:58:22;;;;;;;36.40;14.65;;;0.90;99.90;;;;;;4992474;28;20105;-90
2023/12/02 05:00:49;;;;;;;42.20;15.30;;;0.70;99.90;;;;;;4989830;28;20034;-90
2023/12/02 05:03:17;;;;;;;36.60;14.68;;;0.90;99.90;;;;;;4995580;28;20073;-89
2023/12/02 05:05:43;;;;;;;45.10;16.05;;;0.90;99.90;;;;;;4989623;28;20133;-90
2023/12/02 05:08:09;;;;;;;36.28;15.70;;;0.90;99.90;;;;;;4992671;28;20050;-90
2023/12/02 05:10:35;;;;;;;35.47;15.15;;;1.00;99.90;;;;;;4991786;28;20030;-89
2023/12/02 05:13:01;;;;;;;37.53;14.55;;;1.10;99.90;;;;;;4990533;28;20038;-91
2023/12/02 05:15:26;;;;;;;36.95;15.52;;;1.30;99.90;;;;;;4993046;28;20560;-91
2023/12/02 05:17:52;;;;;;;38.55;16.35;;;1.30;99.90;;;;;;4988031;28;20085;-91
2023/12/02 05:20:19;;;;;;;42.10;16.13;;;1.30;99.90;;;;;;4990772;28;20052;-90
2023/12/02 05:22:44;;;;;;;43.40;16.65;;;1.30;99.90;;;;;;4989485;28;20038;-91
2023/12/02 05:25:10;;;;;;;51.40;17.38;;;1.40;99.90;;;;;;4987259;28;20030;-91
2023/12/02 05:27:36;;;;;;;40.50;15.02;;;1.30;99.90;;;;;;5008611;28;20062;-91
2023/12/02 05:30:04;;;;;;;39.13;15.77;;;1.10;99.90;;;;;;4979028;28;20046;-91
2023/12/02 05:32:29;;;;;;;37.65;15.95;;;1.20;99.90;;;;;;4992895;28;20045;-91
2023/12/02 05:34:58;;;;;;;38.92;15.45;;;1.20;99.90;;;;;;4989617;28;20061;-90
2023/12/02 05:37:23;;;;;;;41.83;16.77;;;1.20;99.90;;;;;;4991541;28;20022;-87
2023/12/02 05:39:49;;;;;;;39.05;16.60;;;1.20;99.90;;;;;;4986663;28;20030;-91
2023/12/02 05:42:15;;;;;;;39.35;16.50;;;1.20;99.90;;;;;;4960037;28;20089;-91
2023/12/02 05:44:45;;;;;;;43.60;16.90;;;1.10;99.90;;;;;;4988919;28;20654;-90
2023/12/02 05:47:11;;;;;;;39.47;15.25;;;1.20;99.90;;;;;;4990214;28;20022;-91
2023/12/02 05:49:41;;;;;;;43.05;16.80;;;1.00;99.90;;;;;;4990869;28;20023;-90
2023/12/02 05:52:10;;;;;;;40.15;16.52;;;1.10;99.90;;;;;;4988165;28;20398;-90
2023/12/02 05:54:35;;;;;;;36.83;15.23;;;1.20;99.90;;;;;;5003970;28;20544;-91
2023/12/02 05:57:01;;;;;;;39.00;15.30;;;1.30;99.90;;;;;;4969038;28;20023;-92
2023/12/02 05:59:27;;;;;;;39.15;16.15;;;1.30;99.90;;;;;;5000911;28;20022;-90
2023/12/02 06:01:52;;;;;;;42.42;16.20;;;1.30;99.90;;;;;;4988090;28;20776;-88
2023/12/02 06:04:18;;;;;;;38.95;15.30;;;1.40;99.90;;;;;;4989801;28;20485;-90
2023/12/02 06:06:47;;;;;;;37.58;15.60;;;1.40;99.90;;;;;;4988083;28;20030;-90
2023/12/02 06:09:14;;;;;;;40.83;18.02;;;1.40;99.90;;;;;;4990421;28;20033;-91
2023/12/02 06:11:40;;;;;;;44.33;16.42;;;1.30;99.90;;;;;;4990592;28;20035;-91
2023/12/02 06:14:05;;;;;;;46.20;16.85;;;1.20;99.90;;;;;;4987092;28;20027;-91
2023/12/02 06:16:31;;;;;;;41.22;16.85;;;1.10;99.90;;;;;;4984216;28;20502;-91
2023/12/02 06:18:57;;;;;;;39.08;16.83;;;1.10;99.90;;;;;;4989746;28;20033;-90
2023/12/02 06:21:25;;;;;;;41.85;17.85;;;1.10;99.90;;;;;;5001222;28;20037;-90
2023/12/02 06:23:50;;;;;;;46.88;18.45;;;1.20;99.90;;;;;;4973261;28;20097;-90
2023/12/02 06:26:18;;;;;;;39.83;17.13;;;1.40;99.90;;;;;;5002721;28;20056;-91
2023/12/02 06:28:49;;;;;;;43.47;17.98;;;1.30;99.90;;;;;;4989156;28;20117;-90
2023/12/02 06:31:16;;;;;;;42.08;17.17;;;1.20;99.90;;;;;;4987977;28;20036;-90
2023/12/02 06:33:44;;;;;;;41.40;17.48;;;1.20;99.90;;;;;;4991506;28;20065;-90
2023/12/02 06:36:11;;;;;;;48.17;18.48;;;1.20;99.90;;;;;;4972598;28;20033;-91
2023/12/02 06:38:36;;;;;;;49.75;20.20;;;1.20;99.90;;;;;;4988613;28;20030;-91
2023/12/02 06:41:05;;;;;;;47.45;19.17;;;1.00;99.90;;;;;;4983901;28;20038;-91
2023/12/02 06:43:31;;;;;;;43.60;18.38;;;0.90;99.90;;;;;;4987778;28;20026;-91
2023/12/02 06:45:58;;;;;;;41.17;18.08;;;0.70;99.90;;;;;;5000049;28;20030;-92
2023/12/02 06:48:24;;;;;;;44.00;18.63;;;0.70;99.90;;;;;;4989494;28;20066;-91
2023/12/02 06:50:49;;;;;;;46.70;19.95;;;0.90;99.90;;;;;;4986932;28;20061;-88
2023/12/02 06:53:16;;;;;;;48.42;18.80;;;0.80;99.90;;;;;;4983936;28;20597;-89
2023/12/02 06:55:44;;;;;;;48.03;18.98;;;0.70;99.90;;;;;;4985416;28;20039;-90
2023/12/02 06:58:10;;;;;;;53.05;20.15;;;0.90;99.90;;;;;;4987262;28;20065;-90
2023/12/02 07:00:38;;;;;;;43.33;19.05;;;0.70;99.90;;;;;;4989735;28;20030;-91
2023/12/02 07:03:08;;;;;;;50.38;18.88;;;0.80;99.90;;;;;;4978855;28;20089;-89
2023/12/02 07:05:35;;;;;;;52.15;19.58;;;0.80;99.90;;;;;;4988852;28;20040;-88
2023/12/02 07:08:01;;;;;;;54.25;20.05;;;0.70;99.90;;;;;;4997976;28;20102;-90
2023/12/02 07:10:26;;;;;;;48.33;19.92;;;0.80;99.90;;;;;;4989173;28;20059;-90
2023/12/02 07:12:52;;;;;;;50.03;18.65;;;0.70;99.90;;;;;;4986480;28;20510;-90
2023/12/02 07:15:19;;;;;;;51.33;20.92;;;0.70;99.90;;;;;;4988640;28;20026;-90
2023/12/02 07:17:45;;;;;;;57.10;21.38;;;0.90;99.90;;;;;;4986454;28;20059;-91
2023/12/02 07:20:14;;;;;;;52.00;20.92;;;1.10;99.90;;;;;;4982536;28;20054;-90
2023/12/02 07:22:39;;;;;;;52.72;19.98;;;1.00;99.90;;;;;;4980720;28;20085;-90
2023/12/02 07:25:07;;;;;;;49.60;18.73;;;0.90;99.90;;;;;;4983034;28;20774;-91
2023/12/02 07:27:33;;;;;;;48.40;19.38;;;0.80;99.90;;;;;;4989240;28;20072;-90
2023/12/02 07:29:58;;;;;;;50.67;19.25;;;0.80;99.90;;;;;;4987396;28;20062;-90
2023/12/02 07:32:24;;;;;;;50.25;19.35;;;0.80;99.90;;;;;;4874518;28;113589;-90
2023/12/02 07:34:50;;;;;;;51.17;18.88;;;0.90;99.90;;;;;;4964931;28;20034;-91
2023/12/02 07:37:15;;;;;;;48.45;20.15;;;0.80;99.90;;;;;;4969443;28;20030;-90
2023/12/02 07:39:41;;;;;;;50.10;20.80;;;0.80;99.90;;;;;;4968683;28;20059;-90
2023/12/02 07:42:06;;;;;;;52.42;20.30;;;0.90;99.90;;;;;;4968310;28;20042;-89
2023/12/02 07:44:32;;;;;;;45.95;19.13;;;0.80;99.90;;;;;;4963130;28;20062;-90
2023/12/02 07:46:58;;;;;;;49.50;18.15;;;0.90;99.90;;;;;;4971673;28;20035;-90
2023/12/02 07:49:24;;;;;;;51.05;19.50;;;0.90;99.90;;;;;;4962929;28;20038;-88
2023/12/02 07:51:52;;;;;;;51.47;19.35;;;0.60;99.90;;;;;;4965871;28;20667;-90
2023/12/02 07:54:17;;;;;;;50.03;20.42;;;0.80;99.90;;;;;;4954395;28;20027;-90
2023/12/02 07:56:43;;;;;;;45.83;17.70;;;0.80;99.90;;;;;;4954264;28;20080;-91
2023/12/02 07:59:09;;;;;;;48.90;18.92;;;0.90;99.90;;;;;;4963647;28;20144;-90
2023/12/02 08:01:34;;;;;;;47.85;20.27;;;0.80;99.90;;;;;;4964429;28;22435;-89
2023/12/02 08:04:00;;;;;;;53.17;20.23;;;0.80;99.90;;;;;;4961197;28;20054;-90
2023/12/02 08:06:26;;;;;;;48.05;18.33;;;0.70;99.90;;;;;;4960687;28;20035;-90
2023/12/02 08:08:53;;;;;;;46.55;17.80;;;0.70;99.90;;;;;;4962695;28;20034;-89
2023/12/02 08:11:19;;;;;;;46.65;18.90;;;0.70;99.90;;;;;;4955133;28;20250;-90
2023/12/02 08:13:45;;;;;;;53.63;20.60;;;0.70;99.90;;;;;;4961323;28;20027;-91
2023/12/02 08:16:13;;;;;;;52.60;20.35;;;0.60;99.90;;;;;;4963702;28;20605;-90
2023/12/02 08:18:38;;;;;;;;;;;0.70;99.90;;;;;;4944515;28;20410;-91
2023/12/02 08:21:04;;;;;;;50.53;19.48;;;0.80;99.90;;;;;;4961507;28;19942;-91
2023/12/02 08:23:32;;;;;;;50.90;19.40;;;0.90;99.90;;;;;;4964860;28;20042;-90
2023/12/02 08:25:57;;;;;;;54.42;22.13;;;1.10;99.90;;;;;;4963515;28;20113;-90
2023/12/02 08:28:25;;;;;;;54.53;19.77;;;1.00;99.90;;;;;;4978484;28;20134;-90
2023/12/02 08:30:51;;;;;;;58.45;20.60;;;1.00;99.90;;;;;;4962385;28;20035;-88
2023/12/02 08:33:16;;;;;;;55.10;19.67;;;1.00;99.90;;;;;;4962664;28;20097;-90
2023/12/02 08:35:42;;;;;;;56.28;20.77;;;1.00;99.90;;;;;;4960509;28;20035;-89
2023/12/02 08:38:07;;;;;;;60.22;21.95;;;0.90;99.90;;;;;;4963577;28;20570;-90
2023/12/02 08:40:33;;;;;;;57.28;20.40;;;0.70;99.90;;;;;;4962241;28;20045;-90
2023/12/02 08:43:01;;;;;;;59.17;21.42;;;0.80;99.90;;;;;;4964456;28;20585;-90
2023/12/02 08:45:27;;;;;;;56.83;19.33;;;1.00;99.90;;;;;;4977654;28;20150;-91
2023/12/02 08:47:52;;;;;;;56.58;21.95;;;1.00;99.90;;;;;;4960347;28;20061;-91
2023/12/02 08:50:18;;;;;;;57.67;20.33;;;1.00;99.90;;;;;;4961196;28;20043;-90
2023/12/02 08:52:43;;;;;;;55.90;20.63;;;1.00;99.90;;;;;;4963337;28;20030;-91
2023/12/02 08:55:11;;;;;;;53.47;20.80;;;0.90;99.90;;;;;;4962535;28;20502;-89
2023/12/02 08:57:37;;;;;;;57.05;20.30;;;0.90;99.90;;;;;;4964772;28;20035;-91
2023/12/02 09:00:04;;;;;;;52.83;19.50;;;0.90;99.90;;;;;;4963907;28;20026;-91
2023/12/02 09:02:30;;;;;;;48.67;18.30;;;0.90;99.90;;;;;;4959259;28;20050;-91
2023/12/02 09:04:57;;;;;;;55.80;20.60;;;0.90;99.90;;;;;;4978540;28;22910;-92
2023/12/02 09:07:23;;;;;;;52.92;20.70;;;0.90;99.90;;;;;;4965656;28;20023;-91
2023/12/02 09:09:48;;;;;;;53.42;21.05;;;0.90;99.90;;;;;;4964076;28;20533;-91
2023/12/02 09:12:14;;;;;;;56.45;22.23;;;1.10;99.90;;;;;;4961457;28;20039;-90
2023/12/02 09:14:40;;;;;;;58.35;21.50;;;0.90;99.90;;;;;;4963809;28;20027;-90
2023/12/02 09:17:46;;;;;;;59.00;21.35;;;0.90;99.90;;;;;;4964350;28;20073;-89
2023/12/02 09:20:35;;;;;;;55.78;21.00;;;0.80;99.90;;;;;;4979728;28;20053;-90
2023/12/02 09:23:01;;;;;;;50.63;19.80;;;0.90;99.90;;;;;;4963810;28;20022;-89
2023/12/02 09:25:28;;;;;;;55.08;20.75;;;1.00;99.90;;;;;;4978321;28;20031;-89
2023/12/02 09:28:00;;;;;;;58.47;21.17;;;1.00;99.90;;;;;;4962613;28;20045;-90
2023/12/02 09:30:28;;;;;;;53.88;20.02;;;1.00;99.90;;;;;;4960982;28;20030;-89
2023/12/02 09:32:54;;;;;;;57.67;20.83;;;1.10;99.90;;;;;;4977501;28;20018;-91
2023/12/02 09:35:19;;;;;;;55.20;20.88;;;1.10;99.90;;;;;;4962459;28;20046;-90
2023/12/02 09:37:51;;;;;;;54.63;19.52;;;1.10;99.90;;;;;;4965231;28;20126;-89
2023/12/02 09:40:19;;;;;;;57.30;21.48;;;1.10;99.90;;;;;;4978386;28;20097;-90
2023/12/02 09:43:14;;;;;;;58.58;22.40;;;1.00;99.90;;;;;;4962271;28;20030;-90
2023/12/02 09:46:12;;;;;;;56.03;20.30;;;1.10;99.90;;;;;;4960851;28;20117;-90
2023/12/02 09:49:17;;;;;;;59.10;20.98;;;1.10;99.90;;;;;;4969005;28;20043;-90
2023/12/02 09:51:59;;;;;;;55.80;19.77;;;1.30;99.90;;;;;;4966451;28;20046;-89
2023/12/02 09:54:25;;;;;;;62.13;22.13;;;1.30;99.90;;;;;;4978981;28;20054;-89
2023/12/02 09:57:25;;;;;;;49.30;20.00;;;1.30;99.90;;;;;;4964639;28;20027;-90
2023/12/02 10:00:02;;;;;;;50.58;20.05;;;1.30;99.90;;;;;;4978669;28;20389;-90
2023/12/02 10:02:49;;;;;;;53.63;20.17;;;1.40;99.90;;;;;;4975564;28;20398;-89
2023/12/02 10:05:15;;;;;;;58.30;21.73;;;1.50;99.90;;;;;;4977281;28;20710;-90
2023/12/02 10:07:47;;;;;;;52.58;19.83;;;1.50;99.90;;;;;;4958220;28;20062;-89
2023/12/02 10:10:19;;;;;;;53.80;20.80;;;1.50;99.90;;;;;;4974967;28;20031;-90
2023/12/02 10:12:50;;;;;;;55.63;20.58;;;1.40;99.90;;;;;;4958861;28;20034;-89
2023/12/02 10:15:19;;;;;;;50.88;19.05;;;1.20;99.90;;;;;;4959867;28;20135;-90
2023/12/02 10:18:08;;;;;;;59.45;21.65;;;1.30;99.90;;;;;;4963944;28;20055;-90
2023/12/02 10:20:41;;;;;;;51.85;19.63;;;1.20;99.90;;;;;;4966241;28;20665;-90
2023/12/02 10:23:33;;;;;;;56.58;20.55;;;1.20;99.90;;;;;;4986153;28;20041;-89
2023/12/02 10:26:08;;;;;;;53.72;19.35;;;1.30;99.90;;;;;;4969911;28;21786;-88
2023/12/02 10:28:39;;;;;;;55.00;20.27;;;1.30;99.90;;;;;;4966256;28;20022;-89
2023/12/02 10:31:06;;;;;;;46.58;18.83;;;1.30;99.90;;;;;;4967474;28;20035;-90
2023/12/02 10:33:46;;;;;;;58.40;20.48;;;1.40;99.90;;;;;;4969667;28;20069;-90
2023/12/02 10:36:15;;;;;;;51.65;19.33;;;1.50;99.90;;;;;;4969220;28;20023;-89
2023/12/02 10:38:59;;;;;;;52.75;20.02;;;1.40;99.90;;;;;;4970320;28;20031;-90
2023/12/02 10:41:54;;;;;;;51.08;19.13;;;1.50;99.90;;;;;;4980879;28;20085;-89
2023/12/02 10:44:21;;;;;;;56.05;21.02;;;1.50;99.90;;;;;;4968173;28;20528;-90
2023/12/02 10:46:49;;;;;;;58.47;20.83;;;1.60;99.90;;;;;;4968612;28;20030;-90
2023/12/02 10:49:16;;;;;;;48.58;18.13;;;1.60;99.90;;;;;;4985766;28;20093;-90
2023/12/02 10:51:43;;;;;;;55.30;19.67;;;1.60;99.90;;;;;;4968743;28;20034;-90
2023/12/02 10:54:12;;;;;;;52.30;20.13;;;1.50;99.90;;;;;;4970354;28;20446;-89
2023/12/02 10:56:39;;;;;;;55.55;19.40;;;1.50;99.90;;;;;;4967842;28;20383;-90
2023/12/02 10:59:05;;;;;;;50.88;18.77;;;1.60;99.90;;;;;;4969276;28;20051;-88
2023/12/02 11:01:43;;;;;;;52.22;20.33;;;1.40;99.90;;;;;;4968002;28;20031;-89
2023/12/02 11:04:33;;;;;;;49.58;18.20;;;1.60;99.90;;;;;;4968181;28;20041;-87
2023/12/02 11:07:03;;;;;;;50.17;18.95;;;1.50;99.90;;;;;;4962263;28;20090;-90
2023/12/02 11:09:56;;;;;;;50.28;19.60;;;1.40;99.90;;;;;;4961927;28;20061;-89
2023/12/02 11:12:51;;;;;;;53.90;19.13;;;1.50;99.90;;;;;;4939769;28;20051;-86
2023/12/02 11:15:21;;;;;;;54.25;19.40;;;1.60;99.90;;;;;;4924042;28;20132;-89
2023/12/02 11:18:04;;;;;;;49.90;20.00;;;1.70;99.90;;;;;;4942063;28;20097;-89
2023/12/02 11:20:36;;;;;;;56.67;20.10;;;1.80;99.90;;;;;;4926255;29;20028;-90
2023/12/02 11:23:13;;;;;;;50.42;19.15;;;1.60;99.90;;;;;;4941091;28;20041;-90
2023/12/02 11:26:15;;;;;;;44.92;17.55;;;1.60;99.90;;;;;;4923816;29;20042;-90
2023/12/02 11:29:26;;;;;;;54.42;19.42;;;1.50;99.90;;;;;;4935928;28;20054;-90
2023/12/02 11:32:16;;;;;;;49.92;19.67;;;1.40;99.90;;;;;;4926613;28;20043;-90
2023/12/02 11:35:00;;;;;;;60.15;20.65;;;1.50;99.90;;;;;;4942412;28;20173;-91
2023/12/02 11:37:35;;;;;;;54.30;20.05;;;1.50;99.90;;;;;;4945014;28;20548;-91
2023/12/02 11:40:21;;;;;;;52.28;20.10;;;1.50;99.90;;;;;;4926096;29;20039;-90
2023/12/02 11:43:11;;;;;;;57.83;20.88;;;1.40;99.90;;;;;;4923804;28;20134;-90
2023/12/02 11:45:45;;;;;;;56.13;20.50;;;1.50;99.90;;;;;;4925037;29;20296;-91
2023/12/02 11:48:18;;;;;;;52.08;19.45;;;1.70;99.90;;;;;;4927214;28;20027;-91
2023/12/02 11:50:44;;;;;;;54.67;19.75;;;1.50;99.90;;;;;;4961241;28;20027;-91
2023/12/02 11:53:20;;;;;;;49.58;19.50;;;1.50;99.90;;;;;;4963111;28;20081;-90
2023/12/02 11:56:04;;;;;;;56.33;20.60;;;1.60;99.90;;;;;;4963608;28;20049;-90
2023/12/02 11:58:53;;;;;;;56.80;20.75;;;1.50;99.90;;;;;;4964992;28;20019;-91
2023/12/02 12:01:37;;;;;;;54.60;20.25;;;1.60;99.90;;;;;;4963910;28;20076;-91
2023/12/02 12:04:24;;;;;;;50.72;19.73;;;1.50;99.90;;;;;;4978250;28;20034;-91
2023/12/02 12:07:23;;;;;;;54.03;20.50;;;1.70;99.90;;;;;;4963559;28;20034;-91
2023/12/02 12:09:58;;;;;;;51.20;19.80;;;1.70;99.90;;;;;;4964740;28;20284;-90
2023/12/02 12:12:28;;;;;;;63.03;21.42;;;1.60;99.90;;;;;;4978576;28;20035;-91
2023/12/02 12:14:55;;;;;;;56.80;20.73;;;1.50;99.90;;;;;;4961037;28;20073;-91
2023/12/02 12:17:22;;;;;;;53.07;20.60;;;1.60;99.90;;;;;;4964490;28;20027;-90
2023/12/02 12:19:50;;;;;;;54.08;20.17;;;1.70;99.90;;;;;;4961727;28;20114;-91
2023/12/02 12:22:18;;;;;;;59.03;21.55;;;1.70;99.90;;;;;;4964779;28;21798;-91
2023/12/02 12:24:48;;;;;;;56.15;21.17;;;1.70;99.90;;;;;;4961215;28;20030;-91
2023/12/02 12:27:13;;;;;;;54.33;21.35;;;1.60;99.90;;;;;;4962472;28;20038;-90
2023/12/02 12:29:53;;;;;;;52.20;20.17;;;1.50;99.90;;;;;;4974630;28;20043;-91
2023/12/02 12:32:22;;;;;;;57.78;22.48;;;1.60;99.90;;;;;;4960791;28;20046;-90
2023/12/02 12:34:55;;;;;;;55.00;20.92;;;1.40;99.90;;;;;;4961452;28;20513;-90
2023/12/02 12:37:21;;;;;;;66.93;22.63;;;1.40;99.90;;;;;;4961714;28;20478;-90
2023/12/02 12:39:50;;;;;;;52.97;20.65;;;1.50;99.90;;;;;;4958029;28;20042;-91
2023/12/02 12:42:17;;;;;;;54.85;20.45;;;1.50;99.90;;;;;;4962699;28;20031;-91
2023/12/02 12:44:46;;;;;;;61.23;21.73;;;1.60;99.90;;;;;;4961639;28;20152;-91
2023/12/02 12:47:13;;;;;;;53.60;19.58;;;1.50;99.90;;;;;;4962168;28;20126;-92
2023/12/02 12:49:43;;;;;;;56.65;19.60;;;1.40;99.90;;;;;;4971493;28;20042;-92